sensor_id;sensor_type;location;lat;lon;timestamp;P1;durP1;ratioP1;P2;durP2;ratioP2
66870;SDS011;53780;44.998;9.926;2023-05-08T06:55:23;11.75;;;5.88;;
66870;SDS011;53780;44.998;9.926;2023-05-08T06:58:27;10.30;;;6.50;;
66870;SDS011;53780;44.998;9.926;2023-05-08T07:01:34;10.70;;;6.40;;
66870;SDS011;53780;44.998;9.926;2023-05-08T07:04:38;10.45;;;6.72;;
66870;SDS011;53780;44.998;9.926;2023-05-08T07:07:42;12.45;;;6.78;;
66870;SDS011;53780;44.998;9.926;2023-05-08T07:10:46;12.88;;;7.25;;
66870;SDS011;53780;44.998;9.926;2023-05-08T07:13:49;13.20;;;7.13;;
66870;SDS011;53780;44.998;9.926;2023-05-08T07:16:53;15.40;;;8.70;;
66870;SDS011;53780;44.998;9.926;2023-05-08T07:19:57;15.20;;;8.20;;
66870;SDS011;53780;44.998;9.926;2023-05-08T07:23:01;12.38;;;7.75;;
66870;SDS011;53780;44.998;9.926;2023-05-08T07:26:04;15.05;;;7.03;;
66870;SDS011;53780;44.998;9.926;2023-05-08T07:29:08;13.63;;;7.43;;
66870;SDS011;53780;44.998;9.926;2023-05-08T07:32:12;14.55;;;7.22;;
66870;SDS011;53780;44.998;9.926;2023-05-08T07:35:17;12.35;;;7.03;;
66870;SDS011;53780;44.998;9.926;2023-05-08T07:38:22;12.98;;;7.75;;
66870;SDS011;53780;44.998;9.926;2023-05-08T07:41:25;12.15;;;6.68;;
66870;SDS011;53780;44.998;9.926;2023-05-08T07:44:32;13.20;;;7.07;;
66870;SDS011;53780;44.998;9.926;2023-05-08T07:47:36;13.30;;;6.60;;
66870;SDS011;53780;44.998;9.926;2023-05-08T07:50:41;9.63;;;5.85;;
66870;SDS011;53780;44.998;9.926;2023-05-08T07:53:45;10.02;;;6.00;;
66870;SDS011;53780;44.998;9.926;2023-05-08T07:56:51;12.52;;;6.28;;
66870;SDS011;53780;44.998;9.926;2023-05-08T07:59:59;12.57;;;6.10;;
66870;SDS011;53780;44.998;9.926;2023-05-08T08:03:04;13.02;;;6.47;;
66870;SDS011;53780;44.998;9.926;2023-05-08T08:06:08;11.65;;;6.80;;
66870;SDS011;53780;44.998;9.926;2023-05-08T08:09:11;12.75;;;6.32;;
66870;SDS011;53780;44.998;9.926;2023-05-08T08:12:15;11.98;;;6.53;;
66870;SDS011;53780;44.998;9.926;2023-05-08T08:15:19;11.37;;;6.57;;
66870;SDS011;53780;44.998;9.926;2023-05-08T08:18:23;11.75;;;6.40;;
66870;SDS011;53780;44.998;9.926;2023-05-08T08:21:27;11.40;;;7.38;;
66870;SDS011;53780;44.998;9.926;2023-05-08T08:24:31;10.43;;;6.25;;
66870;SDS011;53780;44.998;9.926;2023-05-08T08:27:35;13.95;;;7.13;;
66870;SDS011;53780;44.998;9.926;2023-05-08T08:30:39;12.00;;;7.03;;
66870;SDS011;53780;44.998;9.926;2023-05-08T08:33:43;10.88;;;6.55;;
66870;SDS011;53780;44.998;9.926;2023-05-08T08:36:46;10.57;;;6.10;;
66870;SDS011;53780;44.998;9.926;2023-05-08T08:39:50;10.25;;;6.50;;
66870;SDS011;53780;44.998;9.926;2023-05-08T08:42:54;12.75;;;6.10;;
66870;SDS011;53780;44.998;9.926;2023-05-08T08:46:02;10.67;;;6.27;;
66870;SDS011;53780;44.998;9.926;2023-05-08T08:49:14;10.13;;;6.50;;
66870;SDS011;53780;44.998;9.926;2023-05-08T08:52:28;9.30;;;5.20;;
66870;SDS011;53780;44.998;9.926;2023-05-08T08:55:36;8.70;;;5.20;;
66870;SDS011;53780;44.998;9.926;2023-05-08T08:58:53;11.52;;;5.53;;
66870;SDS011;53780;44.998;9.926;2023-05-08T09:02:04;8.80;;;5.03;;
66870;SDS011;53780;44.998;9.926;2023-05-08T09:05:11;8.45;;;5.13;;
66870;SDS011;53780;44.998;9.926;2023-05-08T09:08:16;10.50;;;5.40;;
66870;SDS011;53780;44.998;9.926;2023-05-08T09:11:20;9.32;;;5.00;;
66870;SDS011;53780;44.998;9.926;2023-05-08T09:14:25;9.23;;;4.97;;
66870;SDS011;53780;44.998;9.926;2023-05-08T09:17:29;9.40;;;5.33;;
66870;SDS011;53780;44.998;9.926;2023-05-08T09:20:32;7.93;;;5.00;;
66870;SDS011;53780;44.998;9.926;2023-05-08T09:27:00;9.40;;;4.75;;
66870;SDS011;53780;44.998;9.926;2023-05-08T09:30:09;7.68;;;4.30;;
66870;SDS011;53780;44.998;9.926;2023-05-08T09:33:15;8.97;;;4.43;;
66870;SDS011;53780;44.998;9.926;2023-05-08T09:36:26;8.85;;;4.90;;
66870;SDS011;53780;44.998;9.926;2023-05-08T09:39:34;8.63;;;4.47;;
66870;SDS011;53780;44.998;9.926;2023-05-08T09:42:38;10.43;;;5.55;;
66870;SDS011;53780;44.998;9.926;2023-05-08T09:45:42;9.10;;;4.70;;
66870;SDS011;53780;44.998;9.926;2023-05-08T09:48:45;9.13;;;5.70;;
66870;SDS011;53780;44.998;9.926;2023-05-08T09:51:52;9.20;;;5.43;;
66870;SDS011;53780;44.998;9.926;2023-05-08T09:54:57;8.98;;;4.72;;
66870;SDS011;53780;44.998;9.926;2023-05-08T09:58:02;8.32;;;5.00;;
66870;SDS011;53780;44.998;9.926;2023-05-08T10:01:07;9.02;;;4.88;;
66870;SDS011;53780;44.998;9.926;2023-05-08T10:04:33;7.93;;;4.40;;
66870;SDS011;53780;44.998;9.926;2023-05-08T10:07:38;7.40;;;4.15;;
66870;SDS011;53780;44.998;9.926;2023-05-08T10:10:42;7.15;;;4.20;;
66870;SDS011;53780;44.998;9.926;2023-05-08T10:13:46;8.80;;;4.75;;
66870;SDS011;53780;44.998;9.926;2023-05-08T10:16:50;6.80;;;3.97;;
66870;SDS011;53780;44.998;9.926;2023-05-08T10:19:57;8.70;;;4.70;;
66870;SDS011;53780;44.998;9.926;2023-05-08T10:23:03;8.43;;;4.43;;
66870;SDS011;53780;44.998;9.926;2023-05-08T10:26:15;9.13;;;5.00;;
66870;SDS011;53780;44.998;9.926;2023-05-08T10:29:32;7.28;;;4.20;;
66870;SDS011;53780;44.998;9.926;2023-05-08T10:32:44;6.68;;;4.10;;
66870;SDS011;53780;44.998;9.926;2023-05-08T10:35:48;7.43;;;4.00;;
66870;SDS011;53780;44.998;9.926;2023-05-08T10:38:53;6.90;;;4.10;;
66870;SDS011;53780;44.998;9.926;2023-05-08T10:41:57;7.07;;;3.92;;
66870;SDS011;53780;44.998;9.926;2023-05-08T10:45:04;7.55;;;3.47;;
66870;SDS011;53780;44.998;9.926;2023-05-08T10:58:35;7.60;;;4.43;;
66870;SDS011;53780;44.998;9.926;2023-05-08T11:01:41;7.07;;;4.15;;
66870;SDS011;53780;44.998;9.926;2023-05-08T11:04:49;6.75;;;3.75;;
66870;SDS011;53780;44.998;9.926;2023-05-08T11:07:56;6.60;;;3.77;;
66870;SDS011;53780;44.998;9.926;2023-05-08T11:11:04;8.40;;;3.90;;
66870;SDS011;53780;44.998;9.926;2023-05-08T11:14:16;6.57;;;4.22;;
66870;SDS011;53780;44.998;9.926;2023-05-08T11:17:22;7.43;;;4.65;;
66870;SDS011;53780;44.998;9.926;2023-05-08T11:20:36;6.93;;;4.35;;
66870;SDS011;53780;44.998;9.926;2023-05-08T11:23:41;7.67;;;4.30;;
66870;SDS011;53780;44.998;9.926;2023-05-08T11:26:48;8.80;;;3.67;;
66870;SDS011;53780;44.998;9.926;2023-05-08T11:33:35;8.15;;;4.28;;
66870;SDS011;53780;44.998;9.926;2023-05-08T11:36:42;8.40;;;4.40;;
66870;SDS011;53780;44.998;9.926;2023-05-08T11:46:59;9.15;;;4.45;;
66870;SDS011;53780;44.998;9.926;2023-05-08T11:50:09;8.52;;;4.30;;
66870;SDS011;53780;44.998;9.926;2023-05-08T11:53:14;7.75;;;4.13;;
66870;SDS011;53780;44.998;9.926;2023-05-08T11:56:18;6.60;;;3.97;;
66870;SDS011;53780;44.998;9.926;2023-05-08T11:59:21;8.75;;;3.90;;
66870;SDS011;53780;44.998;9.926;2023-05-08T12:02:38;6.95;;;3.72;;
66870;SDS011;53780;44.998;9.926;2023-05-08T12:05:44;5.88;;;3.40;;
66870;SDS011;53780;44.998;9.926;2023-05-08T12:08:48;6.32;;;3.40;;
66870;SDS011;53780;44.998;9.926;2023-05-08T12:11:55;8.67;;;3.80;;
66870;SDS011;53780;44.998;9.926;2023-05-08T12:15:00;6.97;;;3.20;;
66870;SDS011;53780;44.998;9.926;2023-05-08T12:18:03;6.32;;;3.40;;
66870;SDS011;53780;44.998;9.926;2023-05-08T12:21:07;8.35;;;3.83;;
66870;SDS011;53780;44.998;9.926;2023-05-08T12:24:14;7.88;;;4.13;;
66870;SDS011;53780;44.998;9.926;2023-05-08T12:27:24;7.40;;;3.93;;
66870;SDS011;53780;44.998;9.926;2023-05-08T12:30:29;7.78;;;4.35;;
66870;SDS011;53780;44.998;9.926;2023-05-08T12:33:33;7.38;;;4.50;;
66870;SDS011;53780;44.998;9.926;2023-05-08T12:36:37;9.70;;;4.50;;
66870;SDS011;53780;44.998;9.926;2023-05-08T12:39:42;8.15;;;4.72;;
66870;SDS011;53780;44.998;9.926;2023-05-08T12:42:47;9.30;;;4.80;;
66870;SDS011;53780;44.998;9.926;2023-05-08T12:45:52;8.10;;;4.70;;
66870;SDS011;53780;44.998;9.926;2023-05-08T12:49:01;9.15;;;5.28;;
66870;SDS011;53780;44.998;9.926;2023-05-08T12:52:12;8.70;;;5.38;;
66870;SDS011;53780;44.998;9.926;2023-05-08T12:55:28;8.57;;;4.85;;
66870;SDS011;53780;44.998;9.926;2023-05-08T12:58:33;7.50;;;4.73;;
66870;SDS011;53780;44.998;9.926;2023-05-08T13:01:37;9.82;;;4.90;;
66870;SDS011;53780;44.998;9.926;2023-05-08T13:04:42;9.60;;;5.00;;
66870;SDS011;53780;44.998;9.926;2023-05-08T13:07:46;9.43;;;4.90;;
66870;SDS011;53780;44.998;9.926;2023-05-08T13:10:55;7.68;;;4.47;;
66870;SDS011;53780;44.998;9.926;2023-05-08T13:13:59;6.40;;;3.73;;
66870;SDS011;53780;44.998;9.926;2023-05-08T13:17:03;6.82;;;3.45;;
66870;SDS011;53780;44.998;9.926;2023-05-08T13:20:07;7.80;;;3.85;;
66870;SDS011;53780;44.998;9.926;2023-05-08T13:23:12;6.07;;;3.83;;
66870;SDS011;53780;44.998;9.926;2023-05-08T13:26:15;6.55;;;3.60;;
66870;SDS011;53780;44.998;9.926;2023-05-08T13:29:19;6.17;;;3.80;;
66870;SDS011;53780;44.998;9.926;2023-05-08T13:32:24;8.45;;;4.25;;
66870;SDS011;53780;44.998;9.926;2023-05-08T13:35:28;8.05;;;4.50;;
66870;SDS011;53780;44.998;9.926;2023-05-08T13:38:31;9.85;;;6.32;;
66870;SDS011;53780;44.998;9.926;2023-05-08T13:41:37;14.77;;;7.32;;
66870;SDS011;53780;44.998;9.926;2023-05-08T13:44:40;12.00;;;7.67;;
66870;SDS011;53780;44.998;9.926;2023-05-08T13:47:46;13.07;;;7.65;;
66870;SDS011;53780;44.998;9.926;2023-05-08T13:50:51;12.82;;;7.80;;
66870;SDS011;53780;44.998;9.926;2023-05-08T13:53:54;12.40;;;8.05;;
66870;SDS011;53780;44.998;9.926;2023-05-08T13:56:58;12.32;;;7.60;;
66870;SDS011;53780;44.998;9.926;2023-05-08T14:00:05;12.47;;;7.90;;
66870;SDS011;53780;44.998;9.926;2023-05-08T14:03:11;11.43;;;7.30;;
66870;SDS011;53780;44.998;9.926;2023-05-08T14:06:15;12.07;;;7.70;;
66870;SDS011;53780;44.998;9.926;2023-05-08T14:09:19;13.13;;;7.50;;
66870;SDS011;53780;44.998;9.926;2023-05-08T14:12:23;12.40;;;7.97;;
66870;SDS011;53780;44.998;9.926;2023-05-08T14:15:27;12.53;;;7.17;;
66870;SDS011;53780;44.998;9.926;2023-05-08T14:18:31;11.75;;;7.35;;
66870;SDS011;53780;44.998;9.926;2023-05-08T14:21:34;12.48;;;7.90;;
66870;SDS011;53780;44.998;9.926;2023-05-08T14:24:39;13.98;;;8.10;;
66870;SDS011;53780;44.998;9.926;2023-05-08T14:27:43;13.00;;;8.50;;
66870;SDS011;53780;44.998;9.926;2023-05-08T14:30:47;14.13;;;7.90;;
66870;SDS011;53780;44.998;9.926;2023-05-08T14:33:51;13.95;;;8.40;;
66870;SDS011;53780;44.998;9.926;2023-05-08T14:36:55;14.13;;;8.10;;
66870;SDS011;53780;44.998;9.926;2023-05-08T14:39:59;13.73;;;8.13;;
66870;SDS011;53780;44.998;9.926;2023-05-08T14:43:02;11.38;;;7.25;;
66870;SDS011;53780;44.998;9.926;2023-05-08T14:46:07;14.37;;;7.70;;
66870;SDS011;53780;44.998;9.926;2023-05-08T14:49:10;11.30;;;7.50;;
66870;SDS011;53780;44.998;9.926;2023-05-08T14:52:14;11.05;;;7.45;;
66870;SDS011;53780;44.998;9.926;2023-05-08T14:55:18;12.32;;;7.57;;
66870;SDS011;53780;44.998;9.926;2023-05-08T14:58:23;10.85;;;7.20;;
66870;SDS011;53780;44.998;9.926;2023-05-08T15:01:27;11.47;;;7.20;;
66870;SDS011;53780;44.998;9.926;2023-05-08T15:04:31;12.88;;;7.05;;
66870;SDS011;53780;44.998;9.926;2023-05-08T15:07:35;12.32;;;6.57;;
66870;SDS011;53780;44.998;9.926;2023-05-08T15:10:39;11.85;;;7.00;;
66870;SDS011;53780;44.998;9.926;2023-05-08T15:13:43;11.23;;;6.55;;
66870;SDS011;53780;44.998;9.926;2023-05-08T15:16:47;11.60;;;7.50;;
66870;SDS011;53780;44.998;9.926;2023-05-08T15:19:50;13.10;;;7.03;;
66870;SDS011;53780;44.998;9.926;2023-05-08T15:22:54;12.30;;;7.22;;
66870;SDS011;53780;44.998;9.926;2023-05-08T15:25:58;11.18;;;7.20;;
66870;SDS011;53780;44.998;9.926;2023-05-08T15:29:02;12.70;;;7.07;;
66870;SDS011;53780;44.998;9.926;2023-05-08T15:32:06;10.67;;;7.00;;
66870;SDS011;53780;44.998;9.926;2023-05-08T15:35:09;12.60;;;7.65;;
66870;SDS011;53780;44.998;9.926;2023-05-08T15:38:13;11.63;;;7.80;;
66870;SDS011;53780;44.998;9.926;2023-05-08T15:41:17;12.85;;;7.40;;
66870;SDS011;53780;44.998;9.926;2023-05-08T15:44:21;15.63;;;8.55;;
66870;SDS011;53780;44.998;9.926;2023-05-08T15:47:25;13.53;;;8.03;;
66870;SDS011;53780;44.998;9.926;2023-05-08T15:50:29;13.57;;;8.30;;
66870;SDS011;53780;44.998;9.926;2023-05-08T15:53:34;13.45;;;8.70;;
66870;SDS011;53780;44.998;9.926;2023-05-08T15:56:37;14.25;;;8.40;;
66870;SDS011;53780;44.998;9.926;2023-05-08T15:59:42;14.55;;;8.60;;
66870;SDS011;53780;44.998;9.926;2023-05-08T16:02:46;12.40;;;7.43;;
66870;SDS011;53780;44.998;9.926;2023-05-08T16:05:50;14.95;;;8.00;;
66870;SDS011;53780;44.998;9.926;2023-05-08T16:08:54;14.55;;;8.43;;
66870;SDS011;53780;44.998;9.926;2023-05-08T16:11:58;13.48;;;8.45;;
66870;SDS011;53780;44.998;9.926;2023-05-08T16:15:01;13.63;;;8.48;;
66870;SDS011;53780;44.998;9.926;2023-05-08T16:18:06;12.80;;;8.67;;
66870;SDS011;53780;44.998;9.926;2023-05-08T16:21:10;14.77;;;8.05;;
66870;SDS011;53780;44.998;9.926;2023-05-08T16:24:15;14.80;;;8.40;;
66870;SDS011;53780;44.998;9.926;2023-05-08T16:27:19;12.52;;;8.13;;
66870;SDS011;53780;44.998;9.926;2023-05-08T16:30:23;14.98;;;8.10;;
66870;SDS011;53780;44.998;9.926;2023-05-08T16:33:28;15.27;;;8.50;;
66870;SDS011;53780;44.998;9.926;2023-05-08T16:36:31;15.85;;;8.73;;
66870;SDS011;53780;44.998;9.926;2023-05-08T16:39:35;14.82;;;8.85;;
66870;SDS011;53780;44.998;9.926;2023-05-08T16:42:39;12.57;;;8.10;;
66870;SDS011;53780;44.998;9.926;2023-05-08T16:45:43;13.10;;;7.97;;
66870;SDS011;53780;44.998;9.926;2023-05-08T16:48:47;14.50;;;7.30;;
66870;SDS011;53780;44.998;9.926;2023-05-08T16:51:51;12.05;;;7.90;;
66870;SDS011;53780;44.998;9.926;2023-05-08T16:54:55;12.75;;;8.10;;
66870;SDS011;53780;44.998;9.926;2023-05-08T16:57:58;12.68;;;7.70;;
66870;SDS011;53780;44.998;9.926;2023-05-08T17:01:02;12.77;;;7.32;;
66870;SDS011;53780;44.998;9.926;2023-05-08T17:04:06;12.87;;;7.77;;
66870;SDS011;53780;44.998;9.926;2023-05-08T17:07:11;10.95;;;7.18;;
66870;SDS011;53780;44.998;9.926;2023-05-08T17:10:15;11.82;;;7.18;;
66870;SDS011;53780;44.998;9.926;2023-05-08T17:13:19;11.18;;;7.03;;
66870;SDS011;53780;44.998;9.926;2023-05-08T17:16:23;14.63;;;7.60;;
66870;SDS011;53780;44.998;9.926;2023-05-08T17:19:27;11.90;;;7.03;;
66870;SDS011;53780;44.998;9.926;2023-05-08T17:22:31;11.85;;;7.18;;
66870;SDS011;53780;44.998;9.926;2023-05-08T17:25:34;11.50;;;7.25;;
66870;SDS011;53780;44.998;9.926;2023-05-08T17:28:39;13.65;;;7.50;;
66870;SDS011;53780;44.998;9.926;2023-05-08T17:31:43;12.15;;;7.22;;
66870;SDS011;53780;44.998;9.926;2023-05-08T17:34:47;10.83;;;6.80;;
66870;SDS011;53780;44.998;9.926;2023-05-08T17:37:51;11.70;;;7.93;;
66870;SDS011;53780;44.998;9.926;2023-05-08T17:40:55;11.38;;;6.80;;
66870;SDS011;53780;44.998;9.926;2023-05-08T17:43:59;10.68;;;6.30;;
66870;SDS011;53780;44.998;9.926;2023-05-08T17:47:03;12.60;;;6.57;;
66870;SDS011;53780;44.998;9.926;2023-05-08T17:50:07;11.00;;;7.20;;
66870;SDS011;53780;44.998;9.926;2023-05-08T17:53:12;12.60;;;7.20;;
66870;SDS011;53780;44.998;9.926;2023-05-08T17:56:16;11.93;;;7.35;;
66870;SDS011;53780;44.998;9.926;2023-05-08T17:59:22;13.70;;;7.82;;
66870;SDS011;53780;44.998;9.926;2023-05-08T18:02:27;16.17;;;7.68;;
66870;SDS011;53780;44.998;9.926;2023-05-08T18:05:30;12.43;;;7.63;;
66870;SDS011;53780;44.998;9.926;2023-05-08T18:08:34;14.85;;;7.95;;
66870;SDS011;53780;44.998;9.926;2023-05-08T18:11:38;15.63;;;8.25;;
66870;SDS011;53780;44.998;9.926;2023-05-08T18:14:43;16.45;;;8.77;;
66870;SDS011;53780;44.998;9.926;2023-05-08T18:17:47;14.50;;;8.27;;
66870;SDS011;53780;44.998;9.926;2023-05-08T18:20:51;14.53;;;8.40;;
66870;SDS011;53780;44.998;9.926;2023-05-08T18:23:55;14.52;;;8.32;;
66870;SDS011;53780;44.998;9.926;2023-05-08T18:26:59;14.38;;;8.80;;
66870;SDS011;53780;44.998;9.926;2023-05-08T18:30:03;18.02;;;8.88;;
66870;SDS011;53780;44.998;9.926;2023-05-08T18:33:07;16.73;;;9.30;;
66870;SDS011;53780;44.998;9.926;2023-05-08T18:36:11;16.63;;;9.00;;
66870;SDS011;53780;44.998;9.926;2023-05-08T18:39:14;15.13;;;8.73;;
66870;SDS011;53780;44.998;9.926;2023-05-08T18:42:19;15.80;;;9.13;;
66870;SDS011;53780;44.998;9.926;2023-05-08T18:45:23;14.80;;;9.00;;
66870;SDS011;53780;44.998;9.926;2023-05-08T18:48:27;16.55;;;8.82;;
66870;SDS011;53780;44.998;9.926;2023-05-08T18:51:32;16.13;;;9.17;;
66870;SDS011;53780;44.998;9.926;2023-05-08T18:54:36;16.20;;;8.82;;
66870;SDS011;53780;44.998;9.926;2023-05-08T18:57:40;13.65;;;8.75;;
66870;SDS011;53780;44.998;9.926;2023-05-08T19:00:45;13.93;;;8.85;;
66870;SDS011;53780;44.998;9.926;2023-05-08T19:03:49;14.05;;;8.63;;
66870;SDS011;53780;44.998;9.926;2023-05-08T19:06:54;14.67;;;8.47;;
66870;SDS011;53780;44.998;9.926;2023-05-08T19:09:58;15.02;;;8.55;;
66870;SDS011;53780;44.998;9.926;2023-05-08T19:13:03;15.10;;;8.88;;
66870;SDS011;53780;44.998;9.926;2023-05-08T19:16:07;14.05;;;8.60;;
66870;SDS011;53780;44.998;9.926;2023-05-08T19:19:11;15.40;;;8.27;;
66870;SDS011;53780;44.998;9.926;2023-05-08T19:22:16;14.30;;;8.67;;
66870;SDS011;53780;44.998;9.926;2023-05-08T19:25:20;13.32;;;8.40;;
66870;SDS011;53780;44.998;9.926;2023-05-08T19:28:26;14.90;;;8.20;;
66870;SDS011;53780;44.998;9.926;2023-05-08T19:31:31;14.95;;;8.95;;
66870;SDS011;53780;44.998;9.926;2023-05-08T19:34:35;14.55;;;8.52;;
66870;SDS011;53780;44.998;9.926;2023-05-08T19:37:41;15.23;;;9.03;;
66870;SDS011;53780;44.998;9.926;2023-05-08T19:40:46;16.00;;;8.80;;
66870;SDS011;53780;44.998;9.926;2023-05-08T19:43:50;16.20;;;9.40;;
66870;SDS011;53780;44.998;9.926;2023-05-08T19:46:54;15.52;;;9.82;;
66870;SDS011;53780;44.998;9.926;2023-05-08T19:49:59;17.30;;;9.88;;
66870;SDS011;53780;44.998;9.926;2023-05-08T19:53:03;15.63;;;9.53;;
66870;SDS011;53780;44.998;9.926;2023-05-08T19:56:07;15.48;;;10.10;;
66870;SDS011;53780;44.998;9.926;2023-05-08T19:59:11;17.63;;;9.90;;
66870;SDS011;53780;44.998;9.926;2023-05-08T20:02:15;16.75;;;10.77;;
66870;SDS011;53780;44.998;9.926;2023-05-08T20:05:19;16.73;;;10.05;;
66870;SDS011;53780;44.998;9.926;2023-05-08T20:08:24;17.23;;;10.20;;
66870;SDS011;53780;44.998;9.926;2023-05-08T20:11:28;19.00;;;11.10;;
66870;SDS011;53780;44.998;9.926;2023-05-08T20:14:33;18.05;;;10.88;;
66870;SDS011;53780;44.998;9.926;2023-05-08T20:17:37;21.13;;;11.15;;
66870;SDS011;53780;44.998;9.926;2023-05-08T20:20:41;18.00;;;11.20;;
66870;SDS011;53780;44.998;9.926;2023-05-08T20:23:47;18.57;;;11.17;;
66870;SDS011;53780;44.998;9.926;2023-05-08T20:26:51;17.35;;;11.05;;
66870;SDS011;53780;44.998;9.926;2023-05-08T20:29:58;18.98;;;11.65;;
66870;SDS011;53780;44.998;9.926;2023-05-08T20:33:02;19.73;;;11.15;;
66870;SDS011;53780;44.998;9.926;2023-05-08T20:36:07;20.20;;;12.13;;
66870;SDS011;53780;44.998;9.926;2023-05-08T20:39:11;19.97;;;11.60;;
66870;SDS011;53780;44.998;9.926;2023-05-08T20:42:15;21.63;;;12.93;;
66870;SDS011;53780;44.998;9.926;2023-05-08T20:45:19;22.65;;;12.68;;
66870;SDS011;53780;44.998;9.926;2023-05-08T20:48:23;20.85;;;12.52;;
66870;SDS011;53780;44.998;9.926;2023-05-08T20:51:27;20.30;;;12.60;;
66870;SDS011;53780;44.998;9.926;2023-05-08T20:54:31;21.87;;;12.80;;
66870;SDS011;53780;44.998;9.926;2023-05-08T20:57:35;20.92;;;13.73;;
66870;SDS011;53780;44.998;9.926;2023-05-08T21:00:39;20.00;;;13.13;;
66870;SDS011;53780;44.998;9.926;2023-05-08T21:03:43;20.75;;;12.98;;
66870;SDS011;53780;44.998;9.926;2023-05-08T21:06:47;22.50;;;12.80;;
66870;SDS011;53780;44.998;9.926;2023-05-08T21:09:51;19.70;;;12.10;;
66870;SDS011;53780;44.998;9.926;2023-05-08T21:12:55;19.83;;;11.95;;
66870;SDS011;53780;44.998;9.926;2023-05-08T21:15:59;19.13;;;11.77;;
66870;SDS011;53780;44.998;9.926;2023-05-08T21:19:03;21.20;;;11.65;;
66870;SDS011;53780;44.998;9.926;2023-05-08T21:22:07;20.60;;;12.45;;
66870;SDS011;53780;44.998;9.926;2023-05-08T21:25:12;21.20;;;11.83;;
66870;SDS011;53780;44.998;9.926;2023-05-08T21:28:17;20.08;;;11.98;;
66870;SDS011;53780;44.998;9.926;2023-05-08T21:31:21;18.08;;;11.45;;
66870;SDS011;53780;44.998;9.926;2023-05-08T21:34:26;19.30;;;12.20;;
66870;SDS011;53780;44.998;9.926;2023-05-08T21:37:30;21.98;;;12.25;;
66870;SDS011;53780;44.998;9.926;2023-05-08T21:40:34;21.50;;;12.20;;
66870;SDS011;53780;44.998;9.926;2023-05-08T21:43:38;21.38;;;12.55;;
66870;SDS011;53780;44.998;9.926;2023-05-08T21:46:42;19.45;;;12.57;;
66870;SDS011;53780;44.998;9.926;2023-05-08T21:49:47;19.98;;;12.32;;
66870;SDS011;53780;44.998;9.926;2023-05-08T21:52:51;22.10;;;12.32;;
66870;SDS011;53780;44.998;9.926;2023-05-08T21:55:55;22.17;;;13.13;;
66870;SDS011;53780;44.998;9.926;2023-05-08T21:58:59;20.20;;;12.63;;
66870;SDS011;53780;44.998;9.926;2023-05-08T22:02:03;19.60;;;12.45;;
66870;SDS011;53780;44.998;9.926;2023-05-08T22:05:08;22.23;;;12.70;;
66870;SDS011;53780;44.998;9.926;2023-05-08T22:08:12;19.95;;;12.32;;
66870;SDS011;53780;44.998;9.926;2023-05-08T22:11:15;20.27;;;12.87;;
66870;SDS011;53780;44.998;9.926;2023-05-08T22:14:19;17.25;;;11.88;;
66870;SDS011;53780;44.998;9.926;2023-05-08T22:17:23;20.38;;;13.18;;
66870;SDS011;53780;44.998;9.926;2023-05-08T22:20:27;20.75;;;12.20;;
66870;SDS011;53780;44.998;9.926;2023-05-08T22:23:32;20.17;;;12.50;;
66870;SDS011;53780;44.998;9.926;2023-05-08T22:26:37;19.33;;;12.40;;
66870;SDS011;53780;44.998;9.926;2023-05-08T22:29:41;20.70;;;12.20;;
66870;SDS011;53780;44.998;9.926;2023-05-08T22:32:45;18.98;;;12.15;;
66870;SDS011;53780;44.998;9.926;2023-05-08T22:35:56;24.90;;;12.77;;
66870;SDS011;53780;44.998;9.926;2023-05-08T22:39:00;22.05;;;13.23;;
66870;SDS011;53780;44.998;9.926;2023-05-08T22:42:04;20.63;;;12.50;;
66870;SDS011;53780;44.998;9.926;2023-05-08T22:45:08;19.10;;;11.43;;
66870;SDS011;53780;44.998;9.926;2023-05-08T22:48:13;21.13;;;12.40;;
66870;SDS011;53780;44.998;9.926;2023-05-08T22:51:17;21.60;;;12.65;;
66870;SDS011;53780;44.998;9.926;2023-05-08T22:54:21;21.10;;;13.00;;
66870;SDS011;53780;44.998;9.926;2023-05-08T22:57:25;19.90;;;12.53;;
66870;SDS011;53780;44.998;9.926;2023-05-08T23:00:28;20.15;;;12.93;;
66870;SDS011;53780;44.998;9.926;2023-05-08T23:03:34;22.70;;;13.02;;
66870;SDS011;53780;44.998;9.926;2023-05-08T23:06:38;21.58;;;12.75;;
66870;SDS011;53780;44.998;9.926;2023-05-08T23:09:42;22.25;;;13.38;;
66870;SDS011;53780;44.998;9.926;2023-05-08T23:12:47;22.93;;;13.27;;
66870;SDS011;53780;44.998;9.926;2023-05-08T23:15:51;24.27;;;13.25;;
66870;SDS011;53780;44.998;9.926;2023-05-08T23:18:54;22.13;;;13.20;;
66870;SDS011;53780;44.998;9.926;2023-05-08T23:21:58;21.95;;;13.57;;
66870;SDS011;53780;44.998;9.926;2023-05-08T23:25:02;22.42;;;13.38;;
66870;SDS011;53780;44.998;9.926;2023-05-08T23:28:06;21.30;;;13.50;;
66870;SDS011;53780;44.998;9.926;2023-05-08T23:31:10;21.77;;;13.23;;
66870;SDS011;53780;44.998;9.926;2023-05-08T23:34:14;22.48;;;13.63;;
66870;SDS011;53780;44.998;9.926;2023-05-08T23:37:18;24.67;;;13.88;;
66870;SDS011;53780;44.998;9.926;2023-05-08T23:40:22;22.60;;;13.82;;
66870;SDS011;53780;44.998;9.926;2023-05-08T23:43:26;22.43;;;14.17;;
66870;SDS011;53780;44.998;9.926;2023-05-08T23:46:30;23.50;;;13.93;;
66870;SDS011;53780;44.998;9.926;2023-05-08T23:49:34;23.45;;;14.48;;
66870;SDS011;53780;44.998;9.926;2023-05-08T23:52:38;22.10;;;13.50;;
66870;SDS011;53780;44.998;9.926;2023-05-08T23:55:43;22.63;;;13.80;;
66870;SDS011;53780;44.998;9.926;2023-05-08T23:58:47;23.07;;;13.03;;
